sensor_id;sensor_type;location;lat;lon;timestamp;pressure;altitude;pressure_sealevel;temperature;humidity
21869;BME280;11099;41.564;23.296;2024-03-08T00:00:46;97581.28;;;11.43;100.00
21869;BME280;11099;41.564;23.296;2024-03-08T00:03:31;97608.63;;;11.66;100.00
21869;BME280;11099;41.564;23.296;2024-03-08T00:06:49;97605.09;;;12.14;100.00
21869;BME280;11099;41.564;23.296;2024-03-08T00:09:19;97541.16;;;11.48;100.00
21869;BME280;11099;41.564;23.296;2024-03-08T00:11:50;97552.28;;;11.59;100.00
21869;BME280;11099;41.564;23.296;2024-03-08T00:14:20;97546.66;;;11.12;100.00
21869;BME280;11099;41.564;23.296;2024-03-08T00:16:47;97504.75;;;11.52;100.00
21869;BME280;11099;41.564;23.296;2024-03-08T00:19:15;97554.41;;;12.14;100.00
21869;BME280;11099;41.564;23.296;2024-03-08T00:21:42;97541.72;;;11.28;100.00
21869;BME280;11099;41.564;23.296;2024-03-08T00:24:15;97570.72;;;12.12;100.00
21869;BME280;11099;41.564;23.296;2024-03-08T00:26:44;97592.38;;;11.94;100.00
21869;BME280;11099;41.564;23.296;2024-03-08T00:29:17;97599.28;;;12.47;98.86
21869;BME280;11099;41.564;23.296;2024-03-08T00:31:44;97517.00;;;11.62;100.00
21869;BME280;11099;41.564;23.296;2024-03-08T00:34:15;97598.03;;;12.44;98.98
21869;BME280;11099;41.564;23.296;2024-03-08T00:36:42;97590.38;;;12.25;98.78
21869;BME280;11099;41.564;23.296;2024-03-08T00:39:14;97587.28;;;11.66;100.00
21869;BME280;11099;41.564;23.296;2024-03-08T00:41:55;97588.78;;;12.24;98.57
21869;BME280;11099;41.564;23.296;2024-03-08T00:44:27;97541.84;;;11.97;100.00
21869;BME280;11099;41.564;23.296;2024-03-08T00:46:59;97518.97;;;11.22;100.00
21869;BME280;11099;41.564;23.296;2024-03-08T00:49:26;97561.78;;;12.26;98.76
21869;BME280;11099;41.564;23.296;2024-03-08T00:51:54;97482.72;;;10.64;100.00
21869;BME280;11099;41.564;23.296;2024-03-08T00:54:22;97585.16;;;11.37;100.00
21869;BME280;11099;41.564;23.296;2024-03-08T00:56:53;97542.16;;;11.96;99.66
21869;BME280;11099;41.564;23.296;2024-03-08T00:59:23;97475.75;;;11.68;98.95
21869;BME280;11099;41.564;23.296;2024-03-08T01:01:52;97545.91;;;11.20;100.00
21869;BME280;11099;41.564;23.296;2024-03-08T01:04:20;97525.94;;;11.57;98.19
21869;BME280;11099;41.564;23.296;2024-03-08T01:06:47;97488.38;;;11.19;98.46
21869;BME280;11099;41.564;23.296;2024-03-08T01:09:18;97578.31;;;11.62;97.48
21869;BME280;11099;41.564;23.296;2024-03-08T01:11:46;97516.84;;;11.50;98.69
21869;BME280;11099;41.564;23.296;2024-03-08T01:14:14;97535.47;;;11.32;98.04
21869;BME280;11099;41.564;23.296;2024-03-08T01:16:43;97560.13;;;11.64;97.09
21869;BME280;11099;41.564;23.296;2024-03-08T01:19:10;97581.25;;;12.18;95.38
21869;BME280;11099;41.564;23.296;2024-03-08T01:21:36;97528.75;;;11.44;96.92
21869;BME280;11099;41.564;23.296;2024-03-08T01:24:07;97522.00;;;10.98;98.04
21869;BME280;11099;41.564;23.296;2024-03-08T01:26:35;97476.34;;;10.82;98.38
21869;BME280;11099;41.564;23.296;2024-03-08T01:29:02;97495.28;;;11.12;96.51
21869;BME280;11099;41.564;23.296;2024-03-08T01:31:32;97492.69;;;10.98;97.29
21869;BME280;11099;41.564;23.296;2024-03-08T01:34:01;97532.03;;;11.58;96.08
21869;BME280;11099;41.564;23.296;2024-03-08T01:36:35;97571.56;;;11.65;96.59
21869;BME280;11099;41.564;23.296;2024-03-08T01:39:06;97576.25;;;11.50;94.46
21869;BME280;11099;41.564;23.296;2024-03-08T01:41:35;97522.34;;;11.62;93.89
21869;BME280;11099;41.564;23.296;2024-03-08T01:44:09;97583.53;;;11.67;95.06
21869;BME280;11099;41.564;23.296;2024-03-08T01:46:48;97532.28;;;12.22;92.51
21869;BME280;11099;41.564;23.296;2024-03-08T01:49:20;97540.13;;;12.10;91.58
21869;BME280;11099;41.564;23.296;2024-03-08T01:51:50;97576.69;;;12.27;91.08
21869;BME280;11099;41.564;23.296;2024-03-08T01:54:23;97575.53;;;11.67;92.80
21869;BME280;11099;41.564;23.296;2024-03-08T01:56:54;97572.91;;;11.84;93.13
21869;BME280;11099;41.564;23.296;2024-03-08T01:59:25;97535.72;;;12.05;89.40
21869;BME280;11099;41.564;23.296;2024-03-08T02:01:55;97579.19;;;12.49;89.45
21869;BME280;11099;41.564;23.296;2024-03-08T02:07:23;97570.38;;;13.22;86.37
21869;BME280;11099;41.564;23.296;2024-03-08T02:10:47;97573.72;;;13.48;86.00
21869;BME280;11099;41.564;23.296;2024-03-08T02:13:38;97522.91;;;12.63;85.88
21869;BME280;11099;41.564;23.296;2024-03-08T02:16:11;97536.56;;;12.79;85.46
21869;BME280;11099;41.564;23.296;2024-03-08T02:18:45;97585.34;;;13.05;85.96
21869;BME280;11099;41.564;23.296;2024-03-08T02:29:10;97586.25;;;13.27;87.15
21869;BME280;11099;41.564;23.296;2024-03-08T02:55:16;97556.97;;;11.45;91.88
21869;BME280;11099;41.564;23.296;2024-03-08T02:57:46;97544.78;;;11.13;94.67
21869;BME280;11099;41.564;23.296;2024-03-08T03:00:18;97507.28;;;11.49;92.69
21869;BME280;11099;41.564;23.296;2024-03-08T03:02:51;97573.38;;;12.64;88.54
21869;BME280;11099;41.564;23.296;2024-03-08T03:05:25;97528.97;;;12.89;85.64
21869;BME280;11099;41.564;23.296;2024-03-08T03:07:56;97578.84;;;12.77;86.06
21869;BME280;11099;41.564;23.296;2024-03-08T03:10:44;97526.63;;;12.32;84.46
21869;BME280;11099;41.564;23.296;2024-03-08T03:13:13;97517.34;;;12.47;84.45
21869;BME280;11099;41.564;23.296;2024-03-08T03:15:43;97598.69;;;12.32;85.67
21869;BME280;11099;41.564;23.296;2024-03-08T03:21:01;97557.59;;;11.59;89.17
21869;BME280;11099;41.564;23.296;2024-03-08T03:23:50;97560.69;;;12.01;88.46
21869;BME280;11099;41.564;23.296;2024-03-08T03:26:18;97605.59;;;12.42;88.74
21869;BME280;11099;41.564;23.296;2024-03-08T03:28:47;97546.09;;;10.93;93.94
21869;BME280;11099;41.564;23.296;2024-03-08T03:31:19;97554.03;;;10.53;97.54
21869;BME280;11099;41.564;23.296;2024-03-08T03:33:50;97586.28;;;12.10;92.62
21869;BME280;11099;41.564;23.296;2024-03-08T03:36:17;97550.00;;;11.83;92.43
21869;BME280;11099;41.564;23.296;2024-03-08T03:39:10;97529.31;;;11.23;94.52
21869;BME280;11099;41.564;23.296;2024-03-08T03:42:18;97520.81;;;11.13;93.92
21869;BME280;11099;41.564;23.296;2024-03-08T03:44:58;97566.34;;;11.42;93.34
21869;BME280;11099;41.564;23.296;2024-03-08T03:53:25;97560.06;;;11.29;92.89
21869;BME280;11099;41.564;23.296;2024-03-08T03:55:52;97538.03;;;11.06;92.85
21869;BME280;11099;41.564;23.296;2024-03-08T03:58:24;97543.16;;;10.94;92.19
21869;BME280;11099;41.564;23.296;2024-03-08T04:00:55;97595.34;;;10.95;92.78
21869;BME280;11099;41.564;23.296;2024-03-08T04:03:25;97622.63;;;11.41;93.08
21869;BME280;11099;41.564;23.296;2024-03-08T04:05:54;97582.41;;;11.11;93.25
21869;BME280;11099;41.564;23.296;2024-03-08T04:17:47;97641.25;;;11.80;89.25
21869;BME280;11099;41.564;23.296;2024-03-08T04:35:16;97639.66;;;9.83;94.40
21869;BME280;11099;41.564;23.296;2024-03-08T04:43:07;97614.50;;;10.02;95.76
21869;BME280;11099;41.564;23.296;2024-03-08T04:55:20;97673.13;;;10.61;95.38
21869;BME280;11099;41.564;23.296;2024-03-08T04:58:04;97671.28;;;10.70;93.08
21869;BME280;11099;41.564;23.296;2024-03-08T05:03:20;97675.78;;;10.84;94.13
21869;BME280;11099;41.564;23.296;2024-03-08T05:11:02;97628.59;;;11.06;91.72
21869;BME280;11099;41.564;23.296;2024-03-08T05:13:38;97650.66;;;11.29;92.60
21869;BME280;11099;41.564;23.296;2024-03-08T05:18:41;97633.69;;;11.17;91.37
21869;BME280;11099;41.564;23.296;2024-03-08T05:21:07;97636.00;;;10.87;92.87
21869;BME280;11099;41.564;23.296;2024-03-08T05:23:45;97643.94;;;11.01;93.43
21869;BME280;11099;41.564;23.296;2024-03-08T05:26:12;97682.69;;;11.38;90.42
21869;BME280;11099;41.564;23.296;2024-03-08T05:29:01;97684.59;;;11.46;91.65
21869;BME280;11099;41.564;23.296;2024-03-08T05:31:51;97648.91;;;10.94;91.34
21869;BME280;11099;41.564;23.296;2024-03-08T05:34:26;97664.25;;;11.50;89.90
21869;BME280;11099;41.564;23.296;2024-03-08T05:45:57;97638.81;;;11.13;91.87
21869;BME280;11099;41.564;23.296;2024-03-08T05:49:21;97735.84;;;12.05;93.55
21869;BME280;11099;41.564;23.296;2024-03-08T05:52:18;97723.44;;;11.70;93.75
21869;BME280;11099;41.564;23.296;2024-03-08T05:54:48;97657.47;;;11.13;94.20
21869;BME280;11099;41.564;23.296;2024-03-08T05:59:49;97718.03;;;10.99;95.05
21869;BME280;11099;41.564;23.296;2024-03-08T06:02:21;97696.81;;;11.39;92.67
21869;BME280;11099;41.564;23.296;2024-03-08T06:05:09;97685.81;;;10.87;93.63
21869;BME280;11099;41.564;23.296;2024-03-08T06:08:43;97683.38;;;11.21;91.34
21869;BME280;11099;41.564;23.296;2024-03-08T06:11:35;97701.88;;;11.49;90.05
21869;BME280;11099;41.564;23.296;2024-03-08T06:14:04;97767.81;;;11.66;92.58
21869;BME280;11099;41.564;23.296;2024-03-08T06:16:54;97711.63;;;11.00;92.02
21869;BME280;11099;41.564;23.296;2024-03-08T06:20:06;97710.94;;;10.72;94.91
21869;BME280;11099;41.564;23.296;2024-03-08T06:23:09;97771.00;;;11.23;94.20
21869;BME280;11099;41.564;23.296;2024-03-08T06:25:38;97777.78;;;12.13;91.51
21869;BME280;11099;41.564;23.296;2024-03-08T06:28:07;97733.94;;;11.66;90.03
21869;BME280;11099;41.564;23.296;2024-03-08T06:33:12;97692.84;;;11.05;92.10
21869;BME280;11099;41.564;23.296;2024-03-08T06:35:43;97782.31;;;12.04;90.48
21869;BME280;11099;41.564;23.296;2024-03-08T06:38:10;97729.50;;;12.67;89.24
21869;BME280;11099;41.564;23.296;2024-03-08T06:40:38;97776.97;;;13.95;83.12
21869;BME280;11099;41.564;23.296;2024-03-08T06:43:07;97776.50;;;12.94;83.15
21869;BME280;11099;41.564;23.296;2024-03-08T06:45:41;97745.88;;;14.11;78.56
21869;BME280;11099;41.564;23.296;2024-03-08T06:48:17;97771.44;;;15.10;77.43
21869;BME280;11099;41.564;23.296;2024-03-08T06:50:47;97724.78;;;13.80;79.33
21869;BME280;11099;41.564;23.296;2024-03-08T07:02:02;97786.09;;;14.32;76.95
21869;BME280;11099;41.564;23.296;2024-03-08T07:04:35;97709.81;;;14.47;75.64
21869;BME280;11099;41.564;23.296;2024-03-08T07:07:09;97719.41;;;14.18;77.67
21869;BME280;11099;41.564;23.296;2024-03-08T07:12:13;97784.84;;;14.00;76.57
21869;BME280;11099;41.564;23.296;2024-03-08T07:14:52;97743.34;;;14.95;71.43
21869;BME280;11099;41.564;23.296;2024-03-08T07:33:30;97759.03;;;14.84;68.82
21869;BME280;11099;41.564;23.296;2024-03-08T07:39:43;97796.16;;;15.81;63.46
21869;BME280;11099;41.564;23.296;2024-03-08T07:46:04;97795.09;;;14.87;67.25
21869;BME280;11099;41.564;23.296;2024-03-08T07:51:46;97717.44;;;14.99;65.03
21869;BME280;11099;41.564;23.296;2024-03-08T07:59:40;97788.91;;;15.82;57.93
21869;BME280;11099;41.564;23.296;2024-03-08T08:12:40;97714.53;;;15.37;59.58
21869;BME280;11099;41.564;23.296;2024-03-08T08:31:49;97741.66;;;15.57;58.70
21869;BME280;11099;41.564;23.296;2024-03-08T09:05:40;97742.25;;;16.60;52.23
21869;BME280;11099;41.564;23.296;2024-03-08T09:08:08;97732.59;;;16.59;54.82
21869;BME280;11099;41.564;23.296;2024-03-08T09:10:34;97740.13;;;17.50;50.66
21869;BME280;11099;41.564;23.296;2024-03-08T09:13:00;97705.16;;;16.78;52.28
21869;BME280;11099;41.564;23.296;2024-03-08T09:15:28;97701.31;;;17.67;49.76
21869;BME280;11099;41.564;23.296;2024-03-08T09:17:53;97709.19;;;17.28;50.42
21869;BME280;11099;41.564;23.296;2024-03-08T09:20:19;97725.75;;;17.30;49.36
21869;BME280;11099;41.564;23.296;2024-03-08T09:22:46;97746.47;;;17.13;51.64
21869;BME280;11099;41.564;23.296;2024-03-08T09:25:13;97713.19;;;16.13;54.34
21869;BME280;11099;41.564;23.296;2024-03-08T09:27:39;97703.47;;;15.96;54.47
21869;BME280;11099;41.564;23.296;2024-03-08T18:31:59;97718.53;;;14.35;75.68
21869;BME280;11099;41.564;23.296;2024-03-08T18:34:50;97688.06;;;14.19;75.27
21869;BME280;11099;41.564;23.296;2024-03-08T18:37:23;97765.41;;;14.50;76.24
21869;BME280;11099;41.564;23.296;2024-03-08T18:39:52;97774.59;;;14.40;77.30
21869;BME280;11099;41.564;23.296;2024-03-08T18:42:23;97723.69;;;13.81;77.44
21869;BME280;11099;41.564;23.296;2024-03-08T18:44:52;97774.53;;;14.49;76.71
21869;BME280;11099;41.564;23.296;2024-03-08T18:47:26;97770.66;;;14.08;78.56
21869;BME280;11099;41.564;23.296;2024-03-08T18:55:27;97741.66;;;13.72;78.57
21869;BME280;11099;41.564;23.296;2024-03-08T18:58:03;97781.25;;;13.32;80.41
21869;BME280;11099;41.564;23.296;2024-03-08T19:00:35;97783.84;;;14.13;77.48
21869;BME280;11099;41.564;23.296;2024-03-08T19:03:14;97777.09;;;14.07;77.10
21869;BME280;11099;41.564;23.296;2024-03-08T19:06:06;97781.69;;;14.07;76.59
21869;BME280;11099;41.564;23.296;2024-03-08T19:08:44;97721.72;;;13.61;76.33
21869;BME280;11099;41.564;23.296;2024-03-08T19:24:05;97785.56;;;14.18;74.47
21869;BME280;11099;41.564;23.296;2024-03-08T19:26:37;97797.53;;;14.12;74.89
21869;BME280;11099;41.564;23.296;2024-03-08T19:29:04;97751.81;;;13.96;73.80
21869;BME280;11099;41.564;23.296;2024-03-08T19:31:32;97804.00;;;13.64;76.97
21869;BME280;11099;41.564;23.296;2024-03-08T19:34:01;97744.66;;;13.70;76.07
21869;BME280;11099;41.564;23.296;2024-03-08T19:36:28;97744.09;;;13.39;77.99
21869;BME280;11099;41.564;23.296;2024-03-08T19:38:55;97809.22;;;13.52;79.63
21869;BME280;11099;41.564;23.296;2024-03-08T19:42:01;97817.41;;;13.29;81.55
21869;BME280;11099;41.564;23.296;2024-03-08T19:44:35;97807.78;;;13.54;80.63
21869;BME280;11099;41.564;23.296;2024-03-08T19:47:08;97810.97;;;13.48;81.45
21869;BME280;11099;41.564;23.296;2024-03-08T19:49:40;97748.88;;;13.25;80.66
21869;BME280;11099;41.564;23.296;2024-03-08T19:52:06;97815.19;;;13.49;81.93
21869;BME280;11099;41.564;23.296;2024-03-08T19:54:33;97823.06;;;13.19;81.95
21869;BME280;11099;41.564;23.296;2024-03-08T19:57:10;97753.53;;;13.02;82.01
21869;BME280;11099;41.564;23.296;2024-03-08T19:59:51;97751.84;;;13.14;81.11
21869;BME280;11099;41.564;23.296;2024-03-08T20:02:24;97748.22;;;13.19;80.77
21869;BME280;11099;41.564;23.296;2024-03-08T20:05:07;97810.31;;;13.51;81.57
21869;BME280;11099;41.564;23.296;2024-03-08T20:07:41;97768.03;;;12.75;82.83
21869;BME280;11099;41.564;23.296;2024-03-08T20:16:37;97852.94;;;13.56;82.66
21869;BME280;11099;41.564;23.296;2024-03-08T20:20:14;97853.56;;;13.70;82.45
21869;BME280;11099;41.564;23.296;2024-03-08T20:25:49;97808.09;;;13.01;81.86
21869;BME280;11099;41.564;23.296;2024-03-08T20:39:06;97824.16;;;12.92;84.96
21869;BME280;11099;41.564;23.296;2024-03-08T20:45:23;97884.19;;;13.12;86.29
21869;BME280;11099;41.564;23.296;2024-03-08T20:48:34;97814.56;;;13.08;84.77
21869;BME280;11099;41.564;23.296;2024-03-08T20:51:01;97877.81;;;13.48;84.24
21869;BME280;11099;41.564;23.296;2024-03-08T20:53:31;97879.72;;;13.47;84.83
21869;BME280;11099;41.564;23.296;2024-03-08T20:55:57;97792.22;;;13.04;84.37
21869;BME280;11099;41.564;23.296;2024-03-08T20:58:42;97797.72;;;12.82;86.07
21869;BME280;11099;41.564;23.296;2024-03-08T21:01:10;97839.06;;;13.02;85.59
21869;BME280;11099;41.564;23.296;2024-03-08T21:03:41;97821.75;;;12.73;86.96
21869;BME280;11099;41.564;23.296;2024-03-08T21:06:19;97834.81;;;12.83;86.56
21869;BME280;11099;41.564;23.296;2024-03-08T21:08:47;97863.91;;;13.11;86.75
21869;BME280;11099;41.564;23.296;2024-03-08T21:11:18;97837.34;;;12.97;86.51
21869;BME280;11099;41.564;23.296;2024-03-08T21:13:54;97802.19;;;12.47;87.63
21869;BME280;11099;41.564;23.296;2024-03-08T21:16:21;97840.97;;;13.01;86.97
21869;BME280;11099;41.564;23.296;2024-03-08T21:18:52;97842.69;;;12.88;87.52
21869;BME280;11099;41.564;23.296;2024-03-08T21:21:24;97903.38;;;12.17;91.70
21869;BME280;11099;41.564;23.296;2024-03-08T21:24:09;97902.72;;;12.82;92.35
21869;BME280;11099;41.564;23.296;2024-03-08T21:26:35;97858.06;;;12.83;90.42
21869;BME280;11099;41.564;23.296;2024-03-08T21:29:02;97897.75;;;13.15;89.36
21869;BME280;11099;41.564;23.296;2024-03-08T21:31:31;97873.56;;;12.24;90.83
21869;BME280;11099;41.564;23.296;2024-03-08T21:34:04;97856.03;;;12.88;90.19
21869;BME280;11099;41.564;23.296;2024-03-08T21:36:31;97846.16;;;12.01;93.15
21869;BME280;11099;41.564;23.296;2024-03-08T21:38:59;97830.78;;;12.46;91.42
21869;BME280;11099;41.564;23.296;2024-03-08T21:41:28;97908.47;;;13.24;90.03
21869;BME280;11099;41.564;23.296;2024-03-08T21:43:55;97817.38;;;12.29;91.60
21869;BME280;11099;41.564;23.296;2024-03-08T21:46:21;97897.84;;;13.02;91.63
21869;BME280;11099;41.564;23.296;2024-03-08T21:48:49;97840.16;;;13.01;89.53
21869;BME280;11099;41.564;23.296;2024-03-08T21:51:16;97896.50;;;13.22;90.49
21869;BME280;11099;41.564;23.296;2024-03-08T21:53:43;97828.34;;;12.58;90.54
21869;BME280;11099;41.564;23.296;2024-03-08T21:56:11;97828.25;;;11.70;92.59
21869;BME280;11099;41.564;23.296;2024-03-08T21:58:40;97892.53;;;13.10;91.24
21869;BME280;11099;41.564;23.296;2024-03-08T22:01:07;97862.78;;;12.77;90.97
21869;BME280;11099;41.564;23.296;2024-03-08T22:03:35;97902.50;;;13.27;90.65
21869;BME280;11099;41.564;23.296;2024-03-08T22:06:06;97848.78;;;12.72;91.69
21869;BME280;11099;41.564;23.296;2024-03-08T22:08:56;97896.38;;;13.35;89.78
21869;BME280;11099;41.564;23.296;2024-03-08T22:11:32;97910.69;;;13.65;88.97
21869;BME280;11099;41.564;23.296;2024-03-08T22:14:05;97849.41;;;12.77;90.62
21869;BME280;11099;41.564;23.296;2024-03-08T22:16:41;97905.19;;;13.53;89.25
21869;BME280;11099;41.564;23.296;2024-03-08T22:19:17;97902.34;;;13.58;89.02
21869;BME280;11099;41.564;23.296;2024-03-08T22:21:54;97861.88;;;13.16;89.48
21869;BME280;11099;41.564;23.296;2024-03-08T22:24:23;97819.59;;;13.18;87.87
21869;BME280;11099;41.564;23.296;2024-03-08T22:27:04;97922.94;;;13.92;86.98
21869;BME280;11099;41.564;23.296;2024-03-08T22:29:35;97826.81;;;13.09;88.82
21869;BME280;11099;41.564;23.296;2024-03-08T22:32:03;97847.78;;;13.42;87.69
21869;BME280;11099;41.564;23.296;2024-03-08T22:39:46;97814.91;;;13.41;86.71
21869;BME280;11099;41.564;23.296;2024-03-08T22:42:15;97819.75;;;13.39;86.40
21869;BME280;11099;41.564;23.296;2024-03-08T22:57:59;97909.91;;;13.74;88.68
21869;BME280;11099;41.564;23.296;2024-03-08T23:00:28;97880.00;;;13.80;86.95
21869;BME280;11099;41.564;23.296;2024-03-08T23:05:54;97873.72;;;13.24;89.44
21869;BME280;11099;41.564;23.296;2024-03-08T23:08:23;97914.00;;;13.80;88.39
21869;BME280;11099;41.564;23.296;2024-03-08T23:10:58;97858.25;;;13.82;86.94
21869;BME280;11099;41.564;23.296;2024-03-08T23:19:13;97856.25;;;13.44;87.65
21869;BME280;11099;41.564;23.296;2024-03-08T23:21:45;97917.28;;;13.85;88.22
21869;BME280;11099;41.564;23.296;2024-03-08T23:24:12;97905.19;;;13.79;88.74
21869;BME280;11099;41.564;23.296;2024-03-08T23:26:43;97839.59;;;13.38;87.86
21869;BME280;11099;41.564;23.296;2024-03-08T23:29:11;97810.75;;;12.83;89.79
21869;BME280;11099;41.564;23.296;2024-03-08T23:31:38;97851.38;;;13.55;87.89
21869;BME280;11099;41.564;23.296;2024-03-08T23:37:03;97822.72;;;13.12;89.27
21869;BME280;11099;41.564;23.296;2024-03-08T23:55:29;97822.63;;;13.26;87.48
21869;BME280;11099;41.564;23.296;2024-03-08T23:58:04;97815.66;;;13.16;88.85
